Terminal Aerodrome Forecast
Issued by NWS Grand Forks, ND

Home | Current Version | Previous Version | Graphics & Text | Print | Product List | Glossary On
Versions: 1 2 3 4 5 6 7 8 9 10 11 12 13 14 15 16
000
FTUS43 KFGF 131100
TAFGFK
TAF
KGFK 131132Z 1312/1412 18006KT P6SM SKC
     FM131600 19015G23KT P6SM SCT060
     FM140200 29010KT P6SM BKN070=

USA.gov is the U.S. government's official web portal to all federal, state and local government web resources and services.